Résultats du cyclo-cross de Gémens le 17 novembre 2019

 

Rang Dos. N° Licence Nom Prénom Cat. Cat. Aged Club Fédé Dép. Tr Temps Ecart Km/h
FSGT A
1. 22 226775 LAMBERT REMI A Sen EC DUQUESNE OULLINS FSGT 69 6 47:16.97 - 16,217
2. 401 41381910083 PITTON JULIEN AE Sen CVAC VIENNE FFC 38 6 49:33.56 +02:16.59 15,472
3. 12 822389 GUILLET EMERIC A Jun VCR FSGT 69 6 51:05.12 +03:48.15 15,010
4. 20 55710805 BEY GUILLAUME A Sen SAINT DENIS CYCLISME FSGT 69 6 51:18.66 +04:01.69 14,944
5. 404 41381910192 GENTIL ROGER AE Anc CVAC FFC 38 6 51:38.56 +04:21.59 14,848
6. 13 137773 SALAH NICOLAS A Vét ASOS SAINT GALMIER FSGT 42 6 53:00.14 +05:43.17 14,467
7. 2 55782471 PAQUET FRANCIS A SVét VC BRIGNAIS FSGT 69 6 53:36.16 +06:19.19 14,305
8. 9 213462 GROS CEDRIC A Vét TEAM SPORT CHALLENGE FSGT 69 6 54:42.17 +07:25.20 14,017
9. 1 55579535 BARON ARNAUD A Vét BOURG AIN CYCLISTE ORGANISATION FSGT 69 6 55:16.06 +07:59.09 13,874
10. 16 55631421 LANARD BENOIT A Sen EC DUQUESNE OULLINS FSGT 69 6 56:18.86 +09:01.89 13,616
11. 10 55657033 ROUQUIER STEPHANE A Vét CYCLO TEAM 69 FSGT 69 6 56:41.82 +09:24.85 13,524
12. 25 130711 CHAUSSINAND PATRICK A Anc TEAM PROTEAMSHOP FSGT 42 6 56:45.99 +09:29.02 13,508
13. 18 55653778 DUFOURT YOANN A Jun VC BRIGNAIS FSGT 69 6 56:57.17 +09:40.20 13,463
14. 406 41381910356 BOUCHET GABRIEL AE Anc CVAC VIENNE FFC 38 5 47:18.21 -1 LAP  
15. 7 55753717 LAVET JEAN LUC A Anc EC DUQUESNE OULLINS FSGT 69 5 47:33.30 -1 LAP  
16. 8 55709615 AHERFI XAVIER A Vét CS PONT DE CHERUY FSGT 69 5 47:51.62 -1 LAP  
17. 403 41381910342 OLAGNON MICHAEL AE Vét CVAC VIENNE FFC 38 5 47:59.07 -1 LAP  
18. 3 55752777 BRUTIN PIERRE A Vét VC CORBAS FSGT 69 5 48:22.22 -1 LAP  
19. 26 536995 ROCFORT SEBASTIEN A Vét AS BERTHELOT MERMOZ FSGT 69 5 48:39.69 -1 LAP  
20. 5 5475145 MONIN THIERRY A SVét CS PONT DE CHERUY FSGT 69 5 48:59.14 -1 LAP  
21. 19 55694376 CAVAGNA CLAUDE A SVét ECO VILLEURBANNE FSGT 69 5 49:48.93 -1 LAP  
22. 14 681094 LARDIERE LUDOVIC A Vét CLUB ALPIN FRANCAIS ST GEORGES D'ESPERANCHE FSGT 38 5 50:06.68 -1 LAP  
23. 11 55654954 BONNARD PROST ROMAIN A Jun VC BRIGNAIS FSGT 69 5 50:08.89 -1 LAP  
24. 21 55721582 VALD FLORENT A Sen CLUB VIENNOIS D'ANIMATION CYCLISTE FSGT 69 5 50:56.20 -1 LAP  
25. 23 55789471 JAMET FLORENT A Sen CLUB VIENNOIS D'ANIMATION CYCLISTE FSGT 69 5 51:59.17 -1 LAP  
26. 24 834963 MAYOUX QUENTIN A Jun VCR FSGT 69 5 52:18.34 -1 LAP  
27. 405 41381910355 PARENT OLIVIER AE SVét CVAC VIENNE FFC 38 5 52:23.44 -1 LAP  
28. 4 822403 CARDENAU FABIEN A Vét VCR FSGT 69 5 53:19.54 -1 LAP  
29. 17 55789129 CALLEJON STEPHANE A SVét EC DUQUESNE OULLINS FSGT 69 5 53:29.77 -1 LAP  
30. 15 681096 COCHARD VINCENT A Vét CAF ST GEORGES D'ESPERANCHE FSGT 38 4 47:26.14 -2 LAP  
31. 402 41381910296 FAVRO CHRISTIAN AE Anc CVAC VIENNE FFC 38 4 54:56.95 -2 LAP  
AB 6 520132 GOUTTEFARDE GEOFFREY A Sen ESPOIR CYCLISTE PAYS DU GIER FSGT 42 1 08:38.57 -5 LAP  

 

Rang Dos. N° Licence Nom Prénom Cat. Cat. Age Club Fédé Dép. Tr Temps Ecart Km/h
FSGT A+B
1. 124 55668103 CHAMBON DAMIEN B Sen EC SAINT PRIEST FSGT 69 6 58:47.62 - 13,042
2. 127 55597693 VINCENDON LOUIS B Anc VC MAX BAREL FSGT 69 6 59:33.05 +00:45.43 12,876
3. 122 234917 PLASSE SERGE B Anc VC MAX BAREL FSGT 69 6 59:54.01 +01:06.39 12,801
4. 134 55760156 GERMAIN DIMITRI B Sen AC MOULIN A VENT FSGT 69 6 1:01:31.28 +02:43.66 12,464
5. 128 226765 LAMBERT ALAIN B Anc AS LOISIRS HAUTEVILLOIS FSGT 21 6 1:01:54.44 +03:06.82 12,386
6. 129 55617333 REY DIT GUZER SILVIN B SVét AC MOULIN A VENT FSGT 69 6 1:02:08.83 +03:21.21 12,338
7. 135 681095 MICLO EMMANUEL B Vét CLUB ALPIN FRANCAIS ST GEORGES D'ESPERANCHE FSGT 38 6 1:02:31.26 +03:43.64 12,264
8. 121 55709082 VAVRE CORENTIN B Esp VC VAULX EN VELIN FSGT 69 6 1:03:20.81 +04:33.19 12,104
9. 126 55475665 CHAMERAT FREDERIC B SVét VC BRIGNAIS FSGT 69 6 1:03:26.28 +04:38.66 12,087
10. 125 55536454 JAUDAUX ERIC B Anc ECO VILLEURBANNE FSGT 69 6 1:03:47.68 +05:00.06 12,019
11. 302 55709094 BARON FANNY BF Jun BOURG AIN CYCLISTE ORGANISATION FSGT 69 6 1:04:10.19 +05:22.57 11,949
12. 303 842114 TABERLET SYLVIE BF SVét VC BRIGNAIS FSGT 69 6 1:05:14.37 +06:26.75 11,753
13. 304 55661189 ROCFORT SOPHIE BF Sen AS BERTHELOT MERMOZ FSGT 69 6 1:07:15.03 +08:27.41 11,402
14. 123 55792055 NAVARRO NICOLAS B Sen TEAM CYCLISTE TOUSSIEU FSGT 69 6 1:08:50.88 +10:03.26 11,137
15. 130 55578348 LEBAS JEAN LUC B Anc SAINT DENIS CYCLISME FSGT 69 6 1:10:09.17 +11:21.55 10,930
16. 132 55781339 BOULET LAURENT B SVét VC FRANCHEVILLE FSGT 69 6 1:11:45.68 +12:58.06 10,685
17. 137 423707 POMORSKI VINCENT B Sen VC VAULX EN VELIN FSGT 69 5 1:00:21.03 -1 LAP  
18. 136 55613230 EGUERS THIERRY B Anc VC FRANCHEVILLE FSGT 69 5 1:00:29.85 -1 LAP  
19. 133 297216 FAURE JEAN YVES B Anc VC MAX BAREL FSGT 69 5 1:02:49.76 -1 LAP  
20. 131 237843 MATHIAS ALAIN B Vét VC FRANCHEVILLE FSGT 69 5 1:03:06.92 -1 LAP  
21. 138 55546604 ROCFORT JEAN PIERRE B SVét AS BERTHELOT MERMOZ FSGT 69 5 1:13:31.86 -1 LAP  
22. 305 55589058 FOREL SANDRINE BF Vét AC MOULIN A VENT FSGT 69 3 1:05:16.45 -3 LAP  

 

Rang Dos. N° Licence Nom Prénom Cat. Cat. Aged Club Fédé Dép. Tr Temps Ecart Km/h
FSGT Cadet
1. 223 41381910011 VANEL CAMILLE Cad Cad CVAC VIENNE FFC 38 3 24:57.18 - 15,365
2. 221 41381910357 CLOT MAXIME Cad Cad CVAC VIENNE FFC 38 3 26:07.11 +01:09.93 14,679
3. 227 822398 CARDENAU THOMAS Cad Cad VCR FSGT 69 3 26:11.37 +01:14.19 14,639
4. 226 55654957 KIRKLAR FELIX Cad Cad VC BRIGNAIS FSGT 69 3 27:17.37 +02:20.19 14,049
5. 222 41381910328 PARENT CHARLES Cad Cad CVAC VIENNE FFC 38 3 28:59.50 +04:02.32 13,224
6. 224 41381910346 GRAWOGEL AUGUSTIN Cad Cad CVAC VIENNE FFC 38 3 37:10.98 +12:13.80 10,311

 

Rang Dos. N° Licence Nom Prénom Cat. CC Club Fédération Dép. Tours Temps Ecart Km/h
FSGT Minime
1. 25 814827 PROST ROMEO Min VC FRANCHEVILLE FSGT 69 6 26:03.19 - 15,337
2. 22 41381910324 MIZOULE LUDO Min CVAC VIENNE FFC 38 6 26:39.91 +00:36.72 14,985
3. 24 41381910329 BOT EWANN Min CVAC VIENNE FFC 38 6 29:27.35 +03:24.16 13,566
4. 23 41381910335 RICHARD KYLAN Min CVAC VIENNE FFC 38 6 30:04.05 +04:00.86 13,290
5. 21 41381910343 CHARBONNIERE LISON Min CVAC VIENNE FFC 38 5 27:55.35 -1 LAP  
6. 26 55779880 HOCHMAN PRALONG SAMUEL Min VC BRIGNAIS FSGT 69 5 28:52.65 -1 LAP  

 

Rang Dos. N° Licence Nom Prénom Cat. CC Club Fédération Dép. Tours Temps Ecart Km/h
FSGT Benjamin
1. 105 55752778 BRUTIN ALBAN Benj VC CORBAS FSGT 69 4 19:50.57 - 13,425
2. 104 41381910344 BARDIN ROBIN Benj CVAC VIENNE FFC 38 4 20:09.22 +00:18.65 13,218
3. 101 41381910134 CHARBONNIERE ANTHONY Benj CVAC VIENNE FFC 38 4 21:31.60 +01:41.03 12,375
4. 108 55753991 REY ESTEBAN Benj VC BRIGNAIS FSGT 69 4 23:01.31 +03:10.74 11,571
5. 110 41380020063 GUILLET ANAIS Benj VELO CLUB RHODANIEN FFC 38 4 23:17.68 +03:27.11 11,436
6. 107 55709083 VAVRE OCEANE Benj VC VAULX EN VELIN FSGT 69 4 24:51.01 +05:00.44 10,720
7. 109 41381910139 BUISSON ROUSSET NEO Benj CVAC VIENNE FFC 38 4 25:40.96 +05:50.39 10,372
8. 106 55738304 LAMOUILLE LAZZIO Benj VC VAULX EN VELIN FSGT 69 4 25:43.11 +05:52.54 10,358
9. 103 41381910122 MALLET LEA Benj CVAC VIENNE FFC 38 3 20:29.14 -1 LAP  

 

Rang Dos. N° Licence Nom Prénom Cat. CC Club Fédération Dép. Tours Temps Ecart Km/h
FSGT Pupille
1. 2 41691120104 FERRAND TOMY Pup BICROSS CLUB DARDILLY FFC 69 6 14:12.63 - 12,413
2. 1 41380020175 LOZANO IVAN Pup VELO CLUB RHODANIEN FFC 38 5 14:30.97 -1 LAP  

 

Rang Dos. N° Licence Nom Prénom Cat. CC Club Fédération Dép. Tours Temps Ecart Km/h
FSGT Poussin
1. 53 41381910359 DUMAS ALBAN Pous CVAC VIENNE FFC 38 3 10:34.93 - 8,334
   

Connexion

Si vous avez activé l'authentification en deux étapes dans votre compte d'utilisateur, merci de saisir votre clé secrète. Si vous ne comprenez pas ce dont il s'agit, vous pouvez laisser le champ vide.